x

Half Moon Bay - 24nm Ssw Of San Francisco, Ca (46012) Wave Buoy

7:50am - Mon 30th May 2016 All times are PDT. -7 hours from GMT.

  • Sig Wave height 6.2ft
  • Swell Direction
  • Peak Period 8s
  • Average Period 7s
  • Wind
    4mph, 7mph gusts
  • Sea Temp 55°f
  • Sea Pressure 1016.1mb
  • Half Moon Bay - 24nm Ssw Of San Francisco, Ca
  • Half Moon Bay - 24nm Ssw Of San Francisco, Ca

More Historic Weather Station data

Upgrade to MSW Pro to gain access to the past 30 days of data for over 8000 Wavebouys and Weather Stations around the globe.

Join Pro

Comparision Forecast

View Surf forecast
   
Mon 05/30 7:50am 6ft 8s 7s 4 7 mph 1016.1mb 55f
6:50am 5ft 8s 7s 2 4 mph 1015.9mb 55f
5:50am 6ft 9s 7s 7 9 mph 1015.6mb 54f
4:50am 5.5ft 8s 7s 7 9 mph 1015.8mb 54f
3:50am 5.5ft 8s 7s 7 9 mph 1016mb 54f
2:50am 5.5ft 8s 7s 9 11 mph 1016.1mb 55f
1:50am 6ft 8s 7s 11 13 mph 1016.2mb 54f
12:50am 6ft 8s 7s 9 11 mph 1016.7mb 55f
Sun 05/29 11:50pm 5.5ft 9s 7s 9 11 mph 1016.8mb 55f
10:50pm 5.5ft 8s 7s 9 11 mph 1017mb 55f
9:50pm 5.5ft 8s 7s 11 13 mph 1016.7mb 55f
8:50pm 6ft 8s 7s 11 13 mph 1016.5mb 55f
7:50pm 5.5ft 8s 6s 9 11 mph 1016.4mb 55f
6:50pm 6ft 8s 6s 16 20 mph 1016.3mb 55f
5:50pm 6ft 9s 7s 16 18 mph 1016.4mb 55f
4:50pm 5ft 9s 7s 16 18 mph 1016.6mb 55f
3:50pm 5.5ft 9s 6s 16 18 mph 1017.1mb 55f
2:50pm 5.5ft 8s 7s 13 18 mph 1017.4mb 56f
1:50pm 6ft 8s 6s 11 13 mph 1017.5mb 55f
12:50pm 7ft 8s 7s 7 11 mph 1017.6mb 55f
11:50am 8ft 8s 7s 9 11 mph 1017.4mb 55f
10:50am 7.5ft 9s 7s 9 11 mph 1017mb 55f
9:50am 8ft 9s  -  11 13 mph 1017mb 54f
8:50am 7ft 9s 7s 9 11 mph 1016.7mb 54f
7:50am 7ft 9s 7s 9 13 mph 1016mb 54f
6:50am 7ft 9s 7s 9 13 mph 1015.3mb 54f
5:50am 7ft 8s 7s 9 11 mph 1014.3mb 54f
4:50am 7ft 9s 7s 4 7 mph 1013.8mb 54f
2:50am 8ft 9s 7s 4 7 mph 1013.7mb 54f
1:50am 7ft 9s 7s 7
mph
1013.7mb 54f
12:50am 7ft 8s 7s 4 7 mph 1013.6mb 54f
Sat 05/28 11:50pm 7ft 9s 7s 7
mph
1013.7mb 54f
10:50pm 6.5ft 8s 7s 4 7 mph 1013.8mb 54f
9:50pm 7ft 9s 7s 11 13 mph 1013.4mb 54f
8:50pm 7ft 9s 7s 13 16 mph 1012.8mb 54f
7:50pm 7ft 9s 7s 13 16 mph 1012.5mb 54f
6:50pm 6.5ft 9s 6s 13 18 mph 1012.2mb 54f
5:50pm 6.5ft 10s 6s 16 20 mph 1012.1mb 54f
4:50pm 7ft 10s 6s 16 20 mph 1011.8mb 54f
3:50pm 6.5ft 9s 6s 20 22 mph 1011.7mb 54f
2:50pm 7ft 9s 6s 20 25 mph 1012mb 54f
1:50pm 6ft 9s 6s 20 25 mph 1012.1mb 54f
12:50pm 7.5ft 10s 6s 20 25 mph 1012.1mb 54f
11:50am 7.5ft 9s 6s 20 25 mph 1012mb 54f
10:50am 8.5ft 9s 6s 20 25 mph 1011.8mb 54f
9:50am 9ft 9s 7s 20 25 mph 1011.9mb 54f
8:50am 9ft 9s 7s 20 25 mph 1011.7mb 54f
7:50am 8.5ft 10s 7s 22 27 mph 1011.1mb 54f
6:50am 8.5ft 10s 7s 22 27 mph 1010.6mb 53f
5:50am 10ft 10s 7s 22 27 mph 1010.3mb 53f
4:50am 9ft 9s 7s 22 29 mph 1010.1mb 54f
3:50am 9ft 10s 6s 22 29 mph 1010.1mb 54f
2:50am 10ft 9s 7s 22 29 mph 1010.5mb 54f
1:50am 9.5ft 9s 6s 25 31 mph 1010.6mb 54f
12:50am 10.5ft 9s 7s 25 29 mph 1011mb 54f
Fri 05/27 11:50pm 10ft 10s 7s 25 31 mph 1011.4mb 54f
10:50pm 9ft 8s 7s 22 27 mph 1012mb 54f
9:50pm 9ft 9s 7s 20 25 mph 1012.2mb 54f
8:50pm 9.5ft 10s 7s 18 22 mph 1012.1mb 54f
7:50pm 9ft 10s 7s 18 20 mph 1012.3mb 54f
6:50pm 9ft 10s 6s 22 27 mph 1012mb 54f
5:50pm 8ft 10s 6s 20 25 mph 1012.7mb 54f
4:50pm 8ft 10s 6s 25 27 mph 1013mb 54f
3:50pm 7.5ft 10s 7s 20 25 mph 1013.7mb 54f
2:50pm 7.5ft 10s 7s 20 25 mph 1014.3mb 54f
1:50pm 7ft 10s 7s 20 25 mph 1014.9mb 54f
12:50pm 8ft 10s 7s 13 16 mph 1015.3mb 54f
11:50am 8.5ft 10s 7s 11 16 mph 1015.4mb 54f
10:50am 8ft 10s 7s 13 16 mph 1015.4mb 54f
9:50am 8.5ft 10s 7s 16 18 mph 1015.7mb 54f
8:50am 10ft 10s 7s 18 22 mph 1015.7mb 54f
7:50am 9ft 9s 7s 18 20 mph 1015.6mb 54f
6:50am 9.5ft 10s 7s 18 20 mph 1015.7mb 54f
5:50am 9ft 10s 7s 20 22 mph 1015.3mb 54f
4:50am 9ft 10s 7s 18 22 mph 1015.4mb 54f
3:50am 8ft 10s 7s 20 22 mph 1015.6mb 54f
2:50am 9ft 10s 7s 20 25 mph 1016mb 54f
1:50am 8.5ft 9s 7s 20 22 mph 1016.6mb 54f
12:50am 8ft 9s 7s 18 22 mph 1017mb 54f
Thu 05/26 11:50pm 9ft 9s 6s 18 22 mph 1017.2mb 54f
10:50pm 9ft 8s 7s 20 22 mph 1017.5mb 54f
9:50pm 9ft 9s 7s 20 25 mph 1017.5mb 54f
8:50pm 9ft 9s 7s 20 25 mph 1017.6mb 54f
7:50pm 8ft 9s 6s 20 25 mph 1018mb 54f
6:50pm 8.5ft 9s 7s 20 25 mph 1018.3mb 54f
5:50pm 8ft 9s 6s 20 25 mph 1018.6mb 55f
4:50pm 7ft 8s 6s 20 27 mph 1019.2mb 55f